sensor_id;sensor_type;location;lat;lon;timestamp;P1;durP1;ratioP1;P2;durP2;ratioP2
23716;SDS011;22094;52.130;5.598;2023-03-01T00:01:11;24.77;;;13.88;;
23716;SDS011;22094;52.130;5.598;2023-03-01T00:03:39;23.77;;;14.45;;
23716;SDS011;22094;52.130;5.598;2023-03-01T00:06:05;23.98;;;14.02;;
23716;SDS011;22094;52.130;5.598;2023-03-01T00:08:31;24.10;;;13.98;;
23716;SDS011;22094;52.130;5.598;2023-03-01T00:11:01;25.25;;;15.20;;
23716;SDS011;22094;52.130;5.598;2023-03-01T00:13:33;23.80;;;14.15;;
23716;SDS011;22094;52.130;5.598;2023-03-01T00:16:01;25.50;;;14.55;;
23716;SDS011;22094;52.130;5.598;2023-03-01T00:18:30;23.77;;;15.15;;
23716;SDS011;22094;52.130;5.598;2023-03-01T00:20:56;23.70;;;13.85;;
23716;SDS011;22094;52.130;5.598;2023-03-01T00:23:22;26.33;;;14.60;;
23716;SDS011;22094;52.130;5.598;2023-03-01T00:25:48;28.85;;;16.15;;
23716;SDS011;22094;52.130;5.598;2023-03-01T00:28:14;30.52;;;15.18;;
23716;SDS011;22094;52.130;5.598;2023-03-01T00:30:40;25.48;;;15.10;;
23716;SDS011;22094;52.130;5.598;2023-03-01T00:33:06;30.52;;;15.35;;
23716;SDS011;22094;52.130;5.598;2023-03-01T00:35:32;28.30;;;15.55;;
23716;SDS011;22094;52.130;5.598;2023-03-01T00:37:59;26.33;;;15.75;;
23716;SDS011;22094;52.130;5.598;2023-03-01T00:40:25;25.70;;;15.10;;
23716;SDS011;22094;52.130;5.598;2023-03-01T00:42:52;23.08;;;14.05;;
23716;SDS011;22094;52.130;5.598;2023-03-01T00:45:17;25.50;;;14.57;;
23716;SDS011;22094;52.130;5.598;2023-03-01T00:47:43;27.08;;;14.80;;
23716;SDS011;22094;52.130;5.598;2023-03-01T00:50:09;27.05;;;14.52;;
23716;SDS011;22094;52.130;5.598;2023-03-01T00:52:36;27.05;;;15.35;;
23716;SDS011;22094;52.130;5.598;2023-03-01T00:55:02;25.40;;;14.88;;
23716;SDS011;22094;52.130;5.598;2023-03-01T00:57:29;27.42;;;15.82;;
23716;SDS011;22094;52.130;5.598;2023-03-01T00:59:54;24.85;;;15.52;;
23716;SDS011;22094;52.130;5.598;2023-03-01T01:02:20;25.35;;;15.40;;
23716;SDS011;22094;52.130;5.598;2023-03-01T01:04:46;23.80;;;14.38;;
23716;SDS011;22094;52.130;5.598;2023-03-01T01:07:11;25.10;;;14.68;;
23716;SDS011;22094;52.130;5.598;2023-03-01T01:09:38;26.33;;;15.38;;
23716;SDS011;22094;52.130;5.598;2023-03-01T01:12:03;26.48;;;15.65;;
23716;SDS011;22094;52.130;5.598;2023-03-01T01:14:29;29.83;;;15.55;;
23716;SDS011;22094;52.130;5.598;2023-03-01T01:16:55;25.52;;;14.98;;
23716;SDS011;22094;52.130;5.598;2023-03-01T01:19:21;29.40;;;15.88;;
23716;SDS011;22094;52.130;5.598;2023-03-01T01:21:47;24.38;;;15.30;;
23716;SDS011;22094;52.130;5.598;2023-03-01T01:24:14;25.92;;;15.02;;
23716;SDS011;22094;52.130;5.598;2023-03-01T01:26:40;25.33;;;14.68;;
23716;SDS011;22094;52.130;5.598;2023-03-01T01:29:06;25.42;;;15.55;;
23716;SDS011;22094;52.130;5.598;2023-03-01T01:31:33;26.17;;;14.95;;
23716;SDS011;22094;52.130;5.598;2023-03-01T01:34:00;23.83;;;15.55;;
23716;SDS011;22094;52.130;5.598;2023-03-01T01:36:27;26.63;;;15.05;;
23716;SDS011;22094;52.130;5.598;2023-03-01T01:38:53;25.13;;;15.00;;
23716;SDS011;22094;52.130;5.598;2023-03-01T01:41:19;28.35;;;15.95;;
23716;SDS011;22094;52.130;5.598;2023-03-01T01:43:50;24.73;;;15.23;;
23716;SDS011;22094;52.130;5.598;2023-03-01T01:46:37;26.77;;;16.10;;
23716;SDS011;22094;52.130;5.598;2023-03-01T01:49:28;27.30;;;14.80;;
23716;SDS011;22094;52.130;5.598;2023-03-01T01:52:22;24.63;;;15.25;;
23716;SDS011;22094;52.130;5.598;2023-03-01T01:57:56;26.05;;;15.80;;
23716;SDS011;22094;52.130;5.598;2023-03-01T02:00:28;27.65;;;16.10;;
23716;SDS011;22094;52.130;5.598;2023-03-01T02:02:55;25.27;;;14.70;;
23716;SDS011;22094;52.130;5.598;2023-03-01T02:05:43;25.63;;;15.25;;
23716;SDS011;22094;52.130;5.598;2023-03-01T02:08:15;24.27;;;15.07;;
23716;SDS011;22094;52.130;5.598;2023-03-01T02:10:45;25.92;;;14.98;;
23716;SDS011;22094;52.130;5.598;2023-03-01T02:13:11;26.27;;;15.18;;
23716;SDS011;22094;52.130;5.598;2023-03-01T02:15:38;31.95;;;16.10;;
23716;SDS011;22094;52.130;5.598;2023-03-01T02:18:05;26.55;;;14.52;;
23716;SDS011;22094;52.130;5.598;2023-03-01T02:20:37;26.15;;;15.80;;
23716;SDS011;22094;52.130;5.598;2023-03-01T02:23:10;30.65;;;17.20;;
23716;SDS011;22094;52.130;5.598;2023-03-01T02:28:29;26.33;;;15.32;;
23716;SDS011;22094;52.130;5.598;2023-03-01T02:30:56;24.70;;;14.77;;
23716;SDS011;22094;52.130;5.598;2023-03-01T02:34:02;24.95;;;13.95;;
23716;SDS011;22094;52.130;5.598;2023-03-01T02:36:33;27.95;;;14.55;;
23716;SDS011;22094;52.130;5.598;2023-03-01T02:39:20;25.42;;;14.40;;
23716;SDS011;22094;52.130;5.598;2023-03-01T02:41:51;24.13;;;14.48;;
23716;SDS011;22094;52.130;5.598;2023-03-01T02:44:18;24.80;;;14.13;;
23716;SDS011;22094;52.130;5.598;2023-03-01T02:46:45;26.42;;;14.38;;
23716;SDS011;22094;52.130;5.598;2023-03-01T02:49:18;24.08;;;14.15;;
23716;SDS011;22094;52.130;5.598;2023-03-01T02:57:26;27.92;;;15.65;;
23716;SDS011;22094;52.130;5.598;2023-03-01T02:59:54;34.20;;;16.65;;
23716;SDS011;22094;52.130;5.598;2023-03-01T03:02:22;32.78;;;17.38;;
23716;SDS011;22094;52.130;5.598;2023-03-01T03:05:07;30.48;;;17.42;;
23716;SDS011;22094;52.130;5.598;2023-03-01T03:07:36;27.38;;;16.60;;
23716;SDS011;22094;52.130;5.598;2023-03-01T03:10:04;27.77;;;16.60;;
23716;SDS011;22094;52.130;5.598;2023-03-01T03:12:32;26.55;;;15.23;;
23716;SDS011;22094;52.130;5.598;2023-03-01T03:14:58;26.08;;;16.20;;
23716;SDS011;22094;52.130;5.598;2023-03-01T03:17:23;29.30;;;16.00;;
23716;SDS011;22094;52.130;5.598;2023-03-01T03:19:49;26.38;;;16.23;;
23716;SDS011;22094;52.130;5.598;2023-03-01T03:22:15;29.88;;;16.20;;
23716;SDS011;22094;52.130;5.598;2023-03-01T03:24:40;27.00;;;15.65;;
23716;SDS011;22094;52.130;5.598;2023-03-01T03:27:06;29.38;;;16.33;;
23716;SDS011;22094;52.130;5.598;2023-03-01T03:29:32;31.05;;;17.35;;
23716;SDS011;22094;52.130;5.598;2023-03-01T03:31:58;27.33;;;16.98;;
23716;SDS011;22094;52.130;5.598;2023-03-01T03:34:24;33.30;;;17.30;;
23716;SDS011;22094;52.130;5.598;2023-03-01T03:36:53;28.08;;;17.48;;
23716;SDS011;22094;52.130;5.598;2023-03-01T03:39:24;29.58;;;16.70;;
23716;SDS011;22094;52.130;5.598;2023-03-01T03:41:51;28.52;;;16.85;;
23716;SDS011;22094;52.130;5.598;2023-03-01T03:44:18;27.73;;;16.20;;
23716;SDS011;22094;52.130;5.598;2023-03-01T03:46:44;27.85;;;16.45;;
23716;SDS011;22094;52.130;5.598;2023-03-01T03:49:09;26.70;;;15.65;;
23716;SDS011;22094;52.130;5.598;2023-03-01T03:51:35;27.65;;;16.58;;
23716;SDS011;22094;52.130;5.598;2023-03-01T03:54:00;25.92;;;16.10;;
23716;SDS011;22094;52.130;5.598;2023-03-01T03:56:26;29.60;;;16.02;;
23716;SDS011;22094;52.130;5.598;2023-03-01T03:58:52;27.77;;;16.05;;
23716;SDS011;22094;52.130;5.598;2023-03-01T04:01:17;26.98;;;16.30;;
23716;SDS011;22094;52.130;5.598;2023-03-01T04:03:43;26.33;;;16.80;;
23716;SDS011;22094;52.130;5.598;2023-03-01T04:06:12;29.27;;;17.30;;
23716;SDS011;22094;52.130;5.598;2023-03-01T04:08:39;32.13;;;16.30;;
23716;SDS011;22094;52.130;5.598;2023-03-01T04:11:05;28.40;;;16.42;;
23716;SDS011;22094;52.130;5.598;2023-03-01T04:13:50;29.15;;;16.77;;
23716;SDS011;22094;52.130;5.598;2023-03-01T04:16:17;32.72;;;17.67;;
23716;SDS011;22094;52.130;5.598;2023-03-01T04:18:43;30.23;;;16.52;;
23716;SDS011;22094;52.130;5.598;2023-03-01T04:21:08;28.65;;;16.63;;
23716;SDS011;22094;52.130;5.598;2023-03-01T04:23:35;26.13;;;15.73;;
23716;SDS011;22094;52.130;5.598;2023-03-01T04:26:00;31.13;;;17.15;;
23716;SDS011;22094;52.130;5.598;2023-03-01T04:30:53;31.00;;;16.23;;
23716;SDS011;22094;52.130;5.598;2023-03-01T04:33:20;29.42;;;15.75;;
23716;SDS011;22094;52.130;5.598;2023-03-01T04:35:46;28.13;;;15.90;;
23716;SDS011;22094;52.130;5.598;2023-03-01T04:38:19;29.90;;;16.90;;
23716;SDS011;22094;52.130;5.598;2023-03-01T04:40:46;29.10;;;17.23;;
23716;SDS011;22094;52.130;5.598;2023-03-01T04:43:14;31.35;;;16.52;;
23716;SDS011;22094;52.130;5.598;2023-03-01T04:45:40;32.15;;;17.38;;
23716;SDS011;22094;52.130;5.598;2023-03-01T04:48:05;30.92;;;17.08;;
23716;SDS011;22094;52.130;5.598;2023-03-01T04:50:31;29.70;;;17.48;;
23716;SDS011;22094;52.130;5.598;2023-03-01T04:52:57;30.38;;;16.20;;
23716;SDS011;22094;52.130;5.598;2023-03-01T04:55:26;32.92;;;17.45;;
23716;SDS011;22094;52.130;5.598;2023-03-01T04:57:52;32.28;;;18.20;;
23716;SDS011;22094;52.130;5.598;2023-03-01T05:00:19;30.67;;;18.33;;
23716;SDS011;22094;52.130;5.598;2023-03-01T05:02:48;33.45;;;18.42;;
23716;SDS011;22094;52.130;5.598;2023-03-01T05:05:18;31.35;;;18.27;;
23716;SDS011;22094;52.130;5.598;2023-03-01T05:07:45;30.17;;;17.48;;
23716;SDS011;22094;52.130;5.598;2023-03-01T05:10:11;30.35;;;17.23;;
23716;SDS011;22094;52.130;5.598;2023-03-01T05:12:36;31.02;;;17.85;;
23716;SDS011;22094;52.130;5.598;2023-03-01T05:15:02;32.00;;;18.02;;
23716;SDS011;22094;52.130;5.598;2023-03-01T05:17:31;31.08;;;17.13;;
23716;SDS011;22094;52.130;5.598;2023-03-01T05:19:58;26.08;;;16.40;;
23716;SDS011;22094;52.130;5.598;2023-03-01T05:22:24;26.40;;;15.95;;
23716;SDS011;22094;52.130;5.598;2023-03-01T05:24:50;31.75;;;17.98;;
23716;SDS011;22094;52.130;5.598;2023-03-01T05:27:15;29.60;;;17.00;;
23716;SDS011;22094;52.130;5.598;2023-03-01T05:29:41;30.45;;;17.23;;
23716;SDS011;22094;52.130;5.598;2023-03-01T05:32:07;35.13;;;17.10;;
23716;SDS011;22094;52.130;5.598;2023-03-01T05:34:34;31.17;;;17.45;;
23716;SDS011;22094;52.130;5.598;2023-03-01T05:37:01;32.50;;;17.90;;
23716;SDS011;22094;52.130;5.598;2023-03-01T05:39:27;31.70;;;17.02;;
23716;SDS011;22094;52.130;5.598;2023-03-01T05:41:55;31.77;;;17.55;;
23716;SDS011;22094;52.130;5.598;2023-03-01T05:44:22;34.10;;;18.50;;
23716;SDS011;22094;52.130;5.598;2023-03-01T05:46:48;31.42;;;18.00;;
23716;SDS011;22094;52.130;5.598;2023-03-01T05:49:14;31.20;;;17.50;;
23716;SDS011;22094;52.130;5.598;2023-03-01T05:51:41;31.38;;;18.25;;
23716;SDS011;22094;52.130;5.598;2023-03-01T05:54:08;34.38;;;17.95;;
23716;SDS011;22094;52.130;5.598;2023-03-01T05:56:34;34.75;;;18.77;;
23716;SDS011;22094;52.130;5.598;2023-03-01T05:59:01;43.15;;;20.50;;
23716;SDS011;22094;52.130;5.598;2023-03-01T06:01:27;34.25;;;19.75;;
23716;SDS011;22094;52.130;5.598;2023-03-01T06:03:53;34.58;;;20.75;;
23716;SDS011;22094;52.130;5.598;2023-03-01T06:06:18;37.88;;;20.98;;
23716;SDS011;22094;52.130;5.598;2023-03-01T06:08:44;36.22;;;21.35;;
23716;SDS011;22094;52.130;5.598;2023-03-01T06:11:09;39.13;;;21.08;;
23716;SDS011;22094;52.130;5.598;2023-03-01T06:13:35;38.13;;;21.40;;
23716;SDS011;22094;52.130;5.598;2023-03-01T06:16:03;46.10;;;20.20;;
23716;SDS011;22094;52.130;5.598;2023-03-01T06:18:30;34.13;;;19.63;;
23716;SDS011;22094;52.130;5.598;2023-03-01T06:20:56;37.50;;;19.38;;
23716;SDS011;22094;52.130;5.598;2023-03-01T06:23:22;32.13;;;17.92;;
23716;SDS011;22094;52.130;5.598;2023-03-01T06:25:48;33.40;;;18.08;;
23716;SDS011;22094;52.130;5.598;2023-03-01T06:28:14;30.58;;;17.20;;
23716;SDS011;22094;52.130;5.598;2023-03-01T06:30:40;30.85;;;16.77;;
23716;SDS011;22094;52.130;5.598;2023-03-01T06:33:05;35.33;;;17.13;;
23716;SDS011;22094;52.130;5.598;2023-03-01T06:35:31;30.70;;;17.40;;
23716;SDS011;22094;52.130;5.598;2023-03-01T06:37:58;31.40;;;17.90;;
23716;SDS011;22094;52.130;5.598;2023-03-01T06:40:25;29.42;;;18.13;;
23716;SDS011;22094;52.130;5.598;2023-03-01T06:42:51;31.23;;;17.55;;
23716;SDS011;22094;52.130;5.598;2023-03-01T06:45:17;30.95;;;17.45;;
23716;SDS011;22094;52.130;5.598;2023-03-01T06:47:44;35.40;;;19.08;;
23716;SDS011;22094;52.130;5.598;2023-03-01T06:50:09;36.72;;;19.00;;
23716;SDS011;22094;52.130;5.598;2023-03-01T06:52:37;33.33;;;18.52;;
23716;SDS011;22094;52.130;5.598;2023-03-01T06:55:03;37.30;;;20.15;;
23716;SDS011;22094;52.130;5.598;2023-03-01T06:57:29;37.75;;;20.40;;
23716;SDS011;22094;52.130;5.598;2023-03-01T06:59:55;37.25;;;21.20;;
23716;SDS011;22094;52.130;5.598;2023-03-01T07:02:20;39.40;;;21.85;;
23716;SDS011;22094;52.130;5.598;2023-03-01T07:04:48;36.88;;;21.35;;
23716;SDS011;22094;52.130;5.598;2023-03-01T07:07:14;47.83;;;21.77;;
23716;SDS011;22094;52.130;5.598;2023-03-01T07:09:40;38.65;;;19.75;;
23716;SDS011;22094;52.130;5.598;2023-03-01T07:12:06;44.30;;;21.92;;
23716;SDS011;22094;52.130;5.598;2023-03-01T07:14:33;38.75;;;19.92;;
23716;SDS011;22094;52.130;5.598;2023-03-01T07:16:58;37.08;;;20.85;;
23716;SDS011;22094;52.130;5.598;2023-03-01T07:19:24;36.63;;;20.38;;
23716;SDS011;22094;52.130;5.598;2023-03-01T07:21:49;46.90;;;22.77;;
23716;SDS011;22094;52.130;5.598;2023-03-01T07:24:15;38.53;;;21.92;;
23716;SDS011;22094;52.130;5.598;2023-03-01T07:26:41;37.88;;;21.13;;
23716;SDS011;22094;52.130;5.598;2023-03-01T07:29:06;40.78;;;20.60;;
23716;SDS011;22094;52.130;5.598;2023-03-01T07:31:34;36.95;;;20.25;;
23716;SDS011;22094;52.130;5.598;2023-03-01T07:34:01;38.70;;;21.10;;
23716;SDS011;22094;52.130;5.598;2023-03-01T07:36:27;39.78;;;20.73;;
23716;SDS011;22094;52.130;5.598;2023-03-01T07:38:52;37.05;;;20.23;;
23716;SDS011;22094;52.130;5.598;2023-03-01T07:41:18;41.08;;;21.60;;
23716;SDS011;22094;52.130;5.598;2023-03-01T07:43:43;41.58;;;21.50;;
23716;SDS011;22094;52.130;5.598;2023-03-01T07:46:09;44.80;;;22.15;;
23716;SDS011;22094;52.130;5.598;2023-03-01T07:48:35;43.58;;;22.95;;
23716;SDS011;22094;52.130;5.598;2023-03-01T07:51:04;40.15;;;22.95;;
23716;SDS011;22094;52.130;5.598;2023-03-01T07:53:31;41.25;;;22.35;;
23716;SDS011;22094;52.130;5.598;2023-03-01T07:56:16;41.28;;;21.75;;
23716;SDS011;22094;52.130;5.598;2023-03-01T07:58:43;43.05;;;23.20;;
23716;SDS011;22094;52.130;5.598;2023-03-01T08:01:10;51.08;;;25.73;;
23716;SDS011;22094;52.130;5.598;2023-03-01T08:03:38;46.33;;;25.35;;
23716;SDS011;22094;52.130;5.598;2023-03-01T08:06:04;38.55;;;22.48;;
23716;SDS011;22094;52.130;5.598;2023-03-01T08:08:31;46.05;;;24.00;;
23716;SDS011;22094;52.130;5.598;2023-03-01T08:10:57;41.30;;;23.75;;
23716;SDS011;22094;52.130;5.598;2023-03-01T08:13:24;44.30;;;24.52;;
23716;SDS011;22094;52.130;5.598;2023-03-01T08:15:50;49.03;;;24.23;;
23716;SDS011;22094;52.130;5.598;2023-03-01T08:18:16;34.92;;;20.77;;
23716;SDS011;22094;52.130;5.598;2023-03-01T08:20:42;32.70;;;19.98;;
23716;SDS011;22094;52.130;5.598;2023-03-01T08:23:08;27.45;;;17.95;;
23716;SDS011;22094;52.130;5.598;2023-03-01T08:25:34;25.52;;;16.25;;
23716;SDS011;22094;52.130;5.598;2023-03-01T08:28:00;23.73;;;15.27;;
23716;SDS011;22094;52.130;5.598;2023-03-01T08:30:25;21.88;;;13.45;;
23716;SDS011;22094;52.130;5.598;2023-03-01T08:32:51;20.90;;;12.18;;
23716;SDS011;22094;52.130;5.598;2023-03-01T08:35:17;21.90;;;12.48;;
23716;SDS011;22094;52.130;5.598;2023-03-01T08:37:43;22.17;;;11.95;;
23716;SDS011;22094;52.130;5.598;2023-03-01T08:40:10;19.05;;;11.13;;
23716;SDS011;22094;52.130;5.598;2023-03-01T08:42:36;17.42;;;10.75;;
23716;SDS011;22094;52.130;5.598;2023-03-01T08:45:02;16.17;;;9.88;;
23716;SDS011;22094;52.130;5.598;2023-03-01T08:47:28;21.27;;;11.55;;
23716;SDS011;22094;52.130;5.598;2023-03-01T08:49:54;17.60;;;11.70;;
23716;SDS011;22094;52.130;5.598;2023-03-01T08:52:20;18.30;;;10.60;;
23716;SDS011;22094;52.130;5.598;2023-03-01T08:54:47;16.50;;;10.40;;
23716;SDS011;22094;52.130;5.598;2023-03-01T08:57:13;16.77;;;11.48;;
23716;SDS011;22094;52.130;5.598;2023-03-01T08:59:39;17.77;;;10.10;;
23716;SDS011;22094;52.130;5.598;2023-03-01T09:02:06;14.75;;;10.05;;
23716;SDS011;22094;52.130;5.598;2023-03-01T09:04:36;15.52;;;10.02;;
23716;SDS011;22094;52.130;5.598;2023-03-01T09:07:02;14.98;;;9.65;;
23716;SDS011;22094;52.130;5.598;2023-03-01T09:09:28;13.90;;;9.63;;
23716;SDS011;22094;52.130;5.598;2023-03-01T09:11:53;10.75;;;8.15;;
23716;SDS011;22094;52.130;5.598;2023-03-01T09:14:19;10.38;;;8.43;;
23716;SDS011;22094;52.130;5.598;2023-03-01T09:16:45;11.57;;;8.52;;
23716;SDS011;22094;52.130;5.598;2023-03-01T09:19:11;12.07;;;8.88;;
23716;SDS011;22094;52.130;5.598;2023-03-01T09:21:37;11.77;;;7.88;;
23716;SDS011;22094;52.130;5.598;2023-03-01T09:24:03;10.25;;;7.88;;
23716;SDS011;22094;52.130;5.598;2023-03-01T09:26:28;12.30;;;7.70;;
23716;SDS011;22094;52.130;5.598;2023-03-01T09:28:55;11.77;;;7.28;;
23716;SDS011;22094;52.130;5.598;2023-03-01T09:31:21;10.85;;;6.47;;
23716;SDS011;22094;52.130;5.598;2023-03-01T09:33:49;8.30;;;6.57;;
23716;SDS011;22094;52.130;5.598;2023-03-01T09:36:16;8.57;;;6.32;;
23716;SDS011;22094;52.130;5.598;2023-03-01T09:38:42;6.82;;;6.03;;
23716;SDS011;22094;52.130;5.598;2023-03-01T09:41:09;8.95;;;5.70;;
23716;SDS011;22094;52.130;5.598;2023-03-01T09:43:52;11.00;;;6.13;;
23716;SDS011;22094;52.130;5.598;2023-03-01T09:46:23;10.63;;;6.28;;
23716;SDS011;22094;52.130;5.598;2023-03-01T09:48:51;11.00;;;6.78;;
23716;SDS011;22094;52.130;5.598;2023-03-01T09:51:30;8.63;;;6.30;;
23716;SDS011;22094;52.130;5.598;2023-03-01T09:53:58;8.45;;;6.00;;
23716;SDS011;22094;52.130;5.598;2023-03-01T09:57:13;7.40;;;5.18;;
23716;SDS011;22094;52.130;5.598;2023-03-01T09:59:32;7.85;;;4.85;;
23716;SDS011;22094;52.130;5.598;2023-03-01T10:04:50;7.63;;;4.50;;
23716;SDS011;22094;52.130;5.598;2023-03-01T10:10:05;7.57;;;4.82;;
23716;SDS011;22094;52.130;5.598;2023-03-01T10:12:35;6.32;;;5.10;;
23716;SDS011;22094;52.130;5.598;2023-03-01T10:15:06;6.88;;;4.75;;
23716;SDS011;22094;52.130;5.598;2023-03-01T10:20:20;8.30;;;4.30;;
23716;SDS011;22094;52.130;5.598;2023-03-01T10:22:50;5.53;;;4.15;;
23716;SDS011;22094;52.130;5.598;2023-03-01T10:25:23;6.45;;;4.03;;
23716;SDS011;22094;52.130;5.598;2023-03-01T10:28:02;7.45;;;4.13;;
23716;SDS011;22094;52.130;5.598;2023-03-01T10:30:35;5.88;;;4.20;;
23716;SDS011;22094;52.130;5.598;2023-03-01T10:33:04;7.05;;;3.72;;
23716;SDS011;22094;52.130;5.598;2023-03-01T10:35:32;12.73;;;4.30;;
23716;SDS011;22094;52.130;5.598;2023-03-01T10:38:05;5.93;;;3.97;;
23716;SDS011;22094;52.130;5.598;2023-03-01T10:40:33;6.07;;;3.95;;
23716;SDS011;22094;52.130;5.598;2023-03-01T10:43:00;6.43;;;4.30;;
23716;SDS011;22094;52.130;5.598;2023-03-01T10:45:34;7.93;;;4.30;;
23716;SDS011;22094;52.130;5.598;2023-03-01T10:48:14;6.28;;;4.10;;
23716;SDS011;22094;52.130;5.598;2023-03-01T10:50:42;6.18;;;3.90;;
23716;SDS011;22094;52.130;5.598;2023-03-01T10:53:29;5.95;;;3.97;;
23716;SDS011;22094;52.130;5.598;2023-03-01T10:56:09;5.97;;;3.92;;
23716;SDS011;22094;52.130;5.598;2023-03-01T10:58:38;4.35;;;3.95;;
23716;SDS011;22094;52.130;5.598;2023-03-01T11:01:06;8.20;;;4.00;;
23716;SDS011;22094;52.130;5.598;2023-03-01T11:04:09;4.82;;;3.58;;
23716;SDS011;22094;52.130;5.598;2023-03-01T11:06:38;9.23;;;4.30;;
23716;SDS011;22094;52.130;5.598;2023-03-01T11:09:23;7.35;;;4.88;;
23716;SDS011;22094;52.130;5.598;2023-03-01T11:11:56;6.85;;;4.13;;
23716;SDS011;22094;52.130;5.598;2023-03-01T11:14:26;5.03;;;4.05;;
23716;SDS011;22094;52.130;5.598;2023-03-01T11:16:58;5.05;;;3.88;;
23716;SDS011;22094;52.130;5.598;2023-03-01T11:19:24;7.53;;;4.80;;
23716;SDS011;22094;52.130;5.598;2023-03-01T11:22:32;5.22;;;4.32;;
23716;SDS011;22094;52.130;5.598;2023-03-01T11:24:44;7.70;;;4.75;;
23716;SDS011;22094;52.130;5.598;2023-03-01T11:27:14;7.20;;;4.45;;
23716;SDS011;22094;52.130;5.598;2023-03-01T11:29:57;7.80;;;4.75;;
23716;SDS011;22094;52.130;5.598;2023-03-01T11:32:25;6.45;;;4.28;;
23716;SDS011;22094;52.130;5.598;2023-03-01T11:34:56;7.88;;;4.57;;
23716;SDS011;22094;52.130;5.598;2023-03-01T11:40:25;8.55;;;4.13;;
23716;SDS011;22094;52.130;5.598;2023-03-01T11:45:22;5.65;;;4.15;;
23716;SDS011;22094;52.130;5.598;2023-03-01T11:50:23;5.53;;;4.50;;
23716;SDS011;22094;52.130;5.598;2023-03-01T11:58:23;5.75;;;4.00;;
23716;SDS011;22094;52.130;5.598;2023-03-01T12:01:09;7.00;;;4.50;;
23716;SDS011;22094;52.130;5.598;2023-03-01T12:03:52;6.80;;;4.15;;
23716;SDS011;22094;52.130;5.598;2023-03-01T12:06:28;6.43;;;4.20;;
23716;SDS011;22094;52.130;5.598;2023-03-01T12:17:21;5.53;;;4.05;;
23716;SDS011;22094;52.130;5.598;2023-03-01T12:23:00;6.55;;;3.60;;
23716;SDS011;22094;52.130;5.598;2023-03-01T12:25:39;6.88;;;4.22;;
23716;SDS011;22094;52.130;5.598;2023-03-01T12:28:19;7.20;;;4.72;;
23716;SDS011;22094;52.130;5.598;2023-03-01T12:31:11;8.20;;;5.35;;
23716;SDS011;22094;52.130;5.598;2023-03-01T12:39:32;6.35;;;4.72;;
23716;SDS011;22094;52.130;5.598;2023-03-01T12:42:08;5.07;;;4.47;;
23716;SDS011;22094;52.130;5.598;2023-03-01T12:50:11;4.13;;;3.70;;
23716;SDS011;22094;52.130;5.598;2023-03-01T12:52:44;4.60;;;4.05;;
23716;SDS011;22094;52.130;5.598;2023-03-01T13:11:50;7.53;;;3.92;;
23716;SDS011;22094;52.130;5.598;2023-03-01T13:16:45;4.78;;;3.70;;
23716;SDS011;22094;52.130;5.598;2023-03-01T13:19:21;4.43;;;3.90;;
23716;SDS011;22094;52.130;5.598;2023-03-01T13:21:49;5.10;;;4.20;;
23716;SDS011;22094;52.130;5.598;2023-03-01T13:24:29;7.18;;;4.38;;
23716;SDS011;22094;52.130;5.598;2023-03-01T13:29:44;5.75;;;3.92;;
23716;SDS011;22094;52.130;5.598;2023-03-01T13:34:49;5.78;;;4.00;;
23716;SDS011;22094;52.130;5.598;2023-03-01T13:37:21;6.07;;;4.50;;
23716;SDS011;22094;52.130;5.598;2023-03-01T13:39:51;5.55;;;3.83;;
23716;SDS011;22094;52.130;5.598;2023-03-01T13:42:37;7.38;;;3.90;;
23716;SDS011;22094;52.130;5.598;2023-03-01T13:47:59;4.28;;;3.70;;
23716;SDS011;22094;52.130;5.598;2023-03-01T13:50:32;4.43;;;3.88;;
23716;SDS011;22094;52.130;5.598;2023-03-01T13:53:03;4.95;;;4.05;;
23716;SDS011;22094;52.130;5.598;2023-03-01T13:55:37;4.28;;;3.88;;
23716;SDS011;22094;52.130;5.598;2023-03-01T14:00:41;5.78;;;4.05;;
23716;SDS011;22094;52.130;5.598;2023-03-01T14:03:17;5.18;;;4.03;;
23716;SDS011;22094;52.130;5.598;2023-03-01T14:05:57;8.82;;;4.32;;
23716;SDS011;22094;52.130;5.598;2023-03-01T14:08:24;4.88;;;4.20;;
23716;SDS011;22094;52.130;5.598;2023-03-01T14:11:20;7.65;;;4.10;;
23716;SDS011;22094;52.130;5.598;2023-03-01T14:19:47;7.60;;;4.07;;
23716;SDS011;22094;52.130;5.598;2023-03-01T14:22:40;4.30;;;3.90;;
23716;SDS011;22094;52.130;5.598;2023-03-01T14:27:57;4.95;;;3.72;;
23716;SDS011;22094;52.130;5.598;2023-03-01T14:30:43;5.95;;;4.20;;
23716;SDS011;22094;52.130;5.598;2023-03-01T14:33:20;7.68;;;4.40;;
23716;SDS011;22094;52.130;5.598;2023-03-01T14:36:25;9.32;;;4.20;;
23716;SDS011;22094;52.130;5.598;2023-03-01T14:38:42;5.22;;;4.15;;
23716;SDS011;22094;52.130;5.598;2023-03-01T14:41:14;6.28;;;4.50;;
23716;SDS011;22094;52.130;5.598;2023-03-01T14:46:38;5.82;;;4.55;;
23716;SDS011;22094;52.130;5.598;2023-03-01T14:49:13;4.80;;;3.95;;
23716;SDS011;22094;52.130;5.598;2023-03-01T14:52:07;6.63;;;4.40;;
23716;SDS011;22094;52.130;5.598;2023-03-01T14:54:45;5.85;;;4.43;;
23716;SDS011;22094;52.130;5.598;2023-03-01T14:57:20;6.15;;;4.13;;
23716;SDS011;22094;52.130;5.598;2023-03-01T14:59:49;8.15;;;4.35;;
23716;SDS011;22094;52.130;5.598;2023-03-01T15:02:19;7.53;;;4.68;;
23716;SDS011;22094;52.130;5.598;2023-03-01T15:05:05;5.35;;;4.05;;
23716;SDS011;22094;52.130;5.598;2023-03-01T15:07:37;6.00;;;4.50;;
23716;SDS011;22094;52.130;5.598;2023-03-01T15:10:05;6.28;;;3.78;;
23716;SDS011;22094;52.130;5.598;2023-03-01T15:12:40;6.57;;;4.03;;
23716;SDS011;22094;52.130;5.598;2023-03-01T15:15:19;10.93;;;4.30;;
23716;SDS011;22094;52.130;5.598;2023-03-01T15:18:22;4.97;;;4.07;;
23716;SDS011;22094;52.130;5.598;2023-03-01T15:20:52;5.00;;;3.90;;
23716;SDS011;22094;52.130;5.598;2023-03-01T15:25:47;8.27;;;4.45;;
23716;SDS011;22094;52.130;5.598;2023-03-01T15:28:21;6.95;;;3.88;;
23716;SDS011;22094;52.130;5.598;2023-03-01T15:30:52;6.53;;;4.13;;
23716;SDS011;22094;52.130;5.598;2023-03-01T15:35:55;7.05;;;4.05;;
23716;SDS011;22094;52.130;5.598;2023-03-01T15:43:48;5.97;;;4.57;;
23716;SDS011;22094;52.130;5.598;2023-03-01T15:48:47;7.25;;;4.28;;
23716;SDS011;22094;52.130;5.598;2023-03-01T15:51:14;6.53;;;4.30;;
23716;SDS011;22094;52.130;5.598;2023-03-01T15:53:41;6.78;;;4.25;;
23716;SDS011;22094;52.130;5.598;2023-03-01T15:56:08;6.20;;;4.25;;
23716;SDS011;22094;52.130;5.598;2023-03-01T15:58:34;6.05;;;4.82;;
23716;SDS011;22094;52.130;5.598;2023-03-01T16:00:59;5.53;;;4.25;;
23716;SDS011;22094;52.130;5.598;2023-03-01T16:03:25;7.57;;;4.90;;
23716;SDS011;22094;52.130;5.598;2023-03-01T16:05:51;6.18;;;4.38;;
23716;SDS011;22094;52.130;5.598;2023-03-01T16:08:17;9.60;;;3.90;;
23716;SDS011;22094;52.130;5.598;2023-03-01T16:10:44;7.88;;;4.25;;
23716;SDS011;22094;52.130;5.598;2023-03-01T16:13:13;5.72;;;4.40;;
23716;SDS011;22094;52.130;5.598;2023-03-01T16:15:38;6.03;;;4.88;;
23716;SDS011;22094;52.130;5.598;2023-03-01T16:18:05;6.28;;;4.60;;
23716;SDS011;22094;52.130;5.598;2023-03-01T16:20:32;6.50;;;4.65;;
23716;SDS011;22094;52.130;5.598;2023-03-01T16:22:59;7.53;;;4.65;;
23716;SDS011;22094;52.130;5.598;2023-03-01T16:25:25;7.93;;;4.72;;
23716;SDS011;22094;52.130;5.598;2023-03-01T16:27:51;6.63;;;5.22;;
23716;SDS011;22094;52.130;5.598;2023-03-01T16:30:20;6.10;;;4.47;;
23716;SDS011;22094;52.130;5.598;2023-03-01T16:32:47;7.85;;;5.30;;
23716;SDS011;22094;52.130;5.598;2023-03-01T16:35:15;6.20;;;4.72;;
23716;SDS011;22094;52.130;5.598;2023-03-01T16:37:43;7.10;;;4.82;;